createdAt,value
2023-02-17T00:01:11.163Z,8.27
2023-02-17T00:03:38.080Z,8.53
2023-02-17T00:06:09.583Z,7.40
2023-02-17T00:08:36.855Z,9.40
2023-02-17T00:11:04.052Z,9.40
2023-02-17T00:13:30.741Z,9.37
2023-02-17T00:15:57.429Z,7.53
2023-02-17T00:18:24.447Z,9.20
2023-02-17T00:20:51.746Z,8.17
2023-02-17T00:23:18.584Z,7.67
2023-02-17T00:25:45.339Z,8.10
2023-02-17T00:28:12.054Z,8.57
2023-02-17T00:30:39.437Z,7.57
2023-02-17T00:33:06.326Z,7.33
2023-02-17T00:35:33.002Z,7.90
2023-02-17T00:37:59.752Z,8.27
2023-02-17T00:40:26.400Z,7.67
2023-02-17T00:42:54.937Z,7.53
2023-02-17T00:45:21.697Z,8.07
2023-02-17T00:47:48.384Z,7.87
2023-02-17T00:50:15.139Z,8.43
2023-02-17T00:52:41.861Z,8.63
2023-02-17T00:55:08.946Z,8.37
2023-02-17T00:57:35.638Z,6.50
2023-02-17T01:00:02.326Z,7.23
2023-02-17T01:02:29.042Z,7.17
2023-02-17T01:04:55.757Z,7.73
2023-02-17T01:07:22.416Z,8.00
2023-02-17T01:09:49.084Z,8.97
2023-02-17T01:12:15.729Z,8.97
2023-02-17T01:14:42.424Z,8.30
2023-02-17T01:17:09.273Z,8.37
2023-02-17T01:19:36.007Z,8.63
2023-02-17T01:22:02.664Z,7.80
2023-02-17T01:24:29.344Z,8.33
2023-02-17T01:26:56.092Z,6.87
2023-02-17T01:29:22.908Z,8.77
2023-02-17T01:31:49.601Z,8.30
2023-02-17T01:34:16.265Z,5.73
2023-02-17T01:36:42.983Z,7.27
2023-02-17T01:39:13.264Z,6.13
2023-02-17T01:41:39.931Z,8.40
2023-02-17T01:44:20.645Z,6.70
2023-02-17T01:46:49.099Z,6.93
2023-02-17T01:49:35.068Z,8.00
2023-02-17T01:52:19.668Z,6.30
2023-02-17T01:54:52.863Z,6.90
2023-02-17T01:57:24.145Z,6.80
2023-02-17T01:59:51.874Z,6.37
2023-02-17T02:02:19.063Z,4.80
2023-02-17T02:04:48.561Z,6.13
2023-02-17T02:07:21.008Z,6.70
2023-02-17T02:09:52.413Z,5.97
2023-02-17T02:12:31.380Z,6.90
2023-02-17T02:15:02.067Z,6.80
2023-02-17T02:17:50.159Z,4.97
2023-02-17T02:20:37.483Z,6.03
2023-02-17T02:23:09.842Z,7.37
2023-02-17T02:26:08.957Z,7.80
2023-02-17T02:28:53.823Z,6.70
2023-02-17T02:31:29.077Z,7.10
2023-02-17T02:34:23.415Z,8.03
2023-02-17T02:37:05.992Z,6.53
2023-02-17T02:39:39.360Z,7.27
2023-02-17T02:42:10.658Z,6.90
2023-02-17T02:44:37.283Z,7.67
2023-02-17T02:47:38.463Z,7.50
2023-02-17T02:50:05.729Z,7.23
2023-02-17T02:52:48.202Z,6.20
2023-02-17T02:55:47.671Z,6.47
2023-02-17T02:58:19.337Z,7.10
2023-02-17T03:01:04.342Z,5.63
2023-02-17T03:04:09.210Z,6.27
2023-02-17T03:06:47.574Z,6.23
2023-02-17T03:09:22.493Z,6.57
2023-02-17T03:11:49.394Z,8.40
2023-02-17T03:14:19.506Z,7.47
2023-02-17T03:16:46.983Z,9.50
2023-02-17T03:19:15.463Z,8.03
2023-02-17T03:21:51.434Z,6.33
2023-02-17T03:24:18.774Z,6.20
2023-02-17T03:26:45.474Z,7.53
2023-02-17T03:29:12.129Z,6.00
2023-02-17T03:31:39.430Z,7.13
2023-02-17T03:34:06.868Z,6.40
2023-02-17T03:36:33.514Z,6.10
2023-02-17T03:39:00.383Z,6.53
2023-02-17T03:41:27.395Z,7.07
2023-02-17T03:43:54.291Z,7.50
2023-02-17T03:46:21.287Z,10.17
2023-02-17T03:48:48.069Z,6.00
2023-02-17T03:51:25.889Z,7.27
2023-02-17T03:53:52.746Z,10.37
2023-02-17T03:56:19.397Z,6.77
2023-02-17T03:58:46.109Z,7.53
2023-02-17T04:01:14.190Z,8.40
2023-02-17T04:03:41.661Z,8.60
2023-02-17T04:06:09.189Z,6.57
2023-02-17T04:08:36.503Z,6.73
2023-02-17T04:11:04.764Z,6.83
2023-02-17T04:13:32.019Z,7.90
2023-02-17T04:15:59.287Z,6.70
2023-02-17T04:18:25.967Z,6.97
2023-02-17T04:20:54.229Z,6.67
2023-02-17T04:23:20.860Z,7.80
2023-02-17T04:25:48.179Z,8.60
2023-02-17T04:28:15.979Z,7.87
2023-02-17T04:30:47.358Z,7.17
2023-02-17T04:33:14.481Z,6.57
2023-02-17T04:35:41.190Z,7.23
2023-02-17T04:38:09.048Z,6.43
2023-02-17T04:40:35.964Z,6.97
2023-02-17T04:43:03.601Z,7.83
2023-02-17T04:45:30.397Z,7.60
2023-02-17T04:47:57.042Z,8.07
2023-02-17T04:50:23.738Z,10.00
2023-02-17T04:52:50.458Z,9.13
2023-02-17T04:55:18.507Z,8.63
2023-02-17T04:57:45.357Z,7.60
2023-02-17T05:00:12.428Z,7.07
2023-02-17T05:02:39.521Z,7.63
2023-02-17T05:05:06.450Z,6.00
2023-02-17T05:07:33.229Z,7.83
2023-02-17T05:09:59.831Z,7.07
2023-02-17T05:12:26.526Z,6.93
2023-02-17T05:14:53.132Z,9.30
2023-02-17T05:17:19.767Z,8.90
2023-02-17T05:19:46.482Z,8.73
2023-02-17T05:22:13.154Z,6.40
2023-02-17T05:24:39.830Z,7.73
2023-02-17T05:27:06.645Z,6.00
2023-02-17T05:29:33.414Z,8.50
2023-02-17T05:32:00.140Z,7.50
2023-02-17T05:34:27.017Z,6.27
2023-02-17T05:36:53.725Z,7.53
2023-02-17T05:39:20.402Z,7.93
2023-02-17T05:41:46.978Z,8.33
2023-02-17T05:44:13.551Z,9.63
2023-02-17T05:46:40.410Z,10.20
2023-02-17T05:49:07.357Z,9.90
2023-02-17T05:51:34.064Z,8.80
2023-02-17T05:54:00.746Z,6.93
2023-02-17T05:56:27.753Z,7.17
2023-02-17T05:58:54.541Z,8.80
2023-02-17T06:01:21.400Z,8.57
2023-02-17T06:03:48.219Z,8.97
2023-02-17T06:06:15.125Z,8.20
2023-02-17T06:08:42.450Z,9.30
2023-02-17T06:11:09.151Z,10.43
2023-02-17T06:13:35.837Z,8.43
2023-02-17T06:16:02.970Z,9.13
2023-02-17T06:18:29.701Z,12.50
2023-02-17T06:20:57.737Z,7.73
2023-02-17T06:23:25.162Z,10.43
2023-02-17T06:25:51.857Z,9.70
2023-02-17T06:28:18.517Z,6.77
2023-02-17T06:30:45.164Z,8.33
2023-02-17T06:33:11.972Z,11.30
2023-02-17T06:35:38.987Z,11.90
2023-02-17T06:38:05.839Z,10.13
2023-02-17T06:40:32.500Z,14.50
2023-02-17T06:42:59.144Z,15.17
2023-02-17T06:45:25.830Z,12.07
2023-02-17T06:47:52.478Z,13.83
2023-02-17T06:50:19.178Z,12.93
2023-02-17T06:52:45.762Z,10.13
2023-02-17T06:55:12.681Z,11.27
2023-02-17T06:57:39.263Z,11.27
2023-02-17T07:00:06.606Z,12.27
2023-02-17T07:02:33.483Z,10.23
2023-02-17T07:05:00.115Z,9.00
2023-02-17T07:07:26.804Z,8.37
2023-02-17T07:09:53.462Z,10.00
2023-02-17T07:12:20.081Z,8.93
2023-02-17T07:14:46.710Z,9.40
2023-02-17T07:17:13.383Z,8.87
2023-02-17T07:19:40.014Z,9.70
2023-02-17T07:22:06.675Z,9.97
2023-02-17T07:24:34.141Z,11.30
2023-02-17T07:27:01.086Z,10.97
2023-02-17T07:29:27.965Z,10.07
2023-02-17T07:31:54.720Z,10.90
2023-02-17T07:34:21.408Z,7.63
2023-02-17T07:36:48.301Z,7.87
2023-02-17T07:39:16.167Z,8.80
2023-02-17T07:41:42.816Z,9.43
2023-02-17T07:44:10.117Z,9.97
2023-02-17T07:46:37.139Z,8.90
2023-02-17T07:49:04.064Z,10.37
2023-02-17T07:51:30.695Z,9.00
2023-02-17T07:53:57.437Z,11.60
2023-02-17T07:56:24.326Z,9.67
2023-02-17T07:58:51.145Z,10.47
2023-02-17T08:01:20.922Z,9.53
2023-02-17T08:03:48.636Z,11.43
2023-02-17T08:06:33.610Z,9.70
2023-02-17T08:09:18.833Z,11.37
2023-02-17T08:12:03.569Z,10.40
2023-02-17T08:14:33.342Z,11.70
2023-02-17T08:17:00.377Z,14.17
2023-02-17T08:19:31.728Z,13.63
2023-02-17T08:22:06.163Z,14.37
2023-02-17T08:24:32.802Z,11.67
2023-02-17T08:26:59.510Z,12.40
2023-02-17T08:29:26.226Z,13.93
2023-02-17T08:31:53.638Z,7.67
2023-02-17T08:34:20.748Z,4.83
2023-02-17T08:36:47.569Z,4.20
2023-02-17T08:39:17.120Z,3.90
2023-02-17T08:41:44.968Z,3.93
2023-02-17T08:44:15.108Z,4.80
2023-02-17T08:46:42.792Z,5.20
2023-02-17T08:49:09.952Z,4.90
2023-02-17T08:51:37.556Z,4.27
2023-02-17T08:54:06.607Z,3.10
2023-02-17T08:56:34.510Z,4.00
2023-02-17T08:59:01.284Z,4.33
2023-02-17T09:01:27.897Z,3.20
2023-02-17T09:03:57.236Z,4.07
2023-02-17T09:06:24.068Z,4.20
2023-02-17T09:08:51.191Z,4.13
2023-02-17T09:11:19.841Z,2.93
2023-02-17T09:13:46.789Z,3.20
2023-02-17T09:16:13.552Z,3.23
2023-02-17T09:18:40.272Z,3.60
2023-02-17T09:21:13.608Z,3.70
2023-02-17T09:23:41.176Z,3.37
2023-02-17T09:26:10.563Z,3.37
2023-02-17T09:28:38.192Z,3.40
2023-02-17T09:31:18.268Z,2.77
2023-02-17T09:33:47.868Z,2.80
2023-02-17T09:36:17.928Z,2.97
2023-02-17T09:38:45.084Z,2.90
2023-02-17T09:41:27.012Z,3.80
2023-02-17T09:43:55.689Z,3.37
2023-02-17T09:46:31.961Z,3.70
2023-02-17T09:49:20.765Z,5.13
2023-02-17T09:52:19.778Z,2.43
2023-02-17T09:54:59.085Z,2.50
2023-02-17T09:57:29.536Z,3.20
2023-02-17T10:00:03.004Z,3.10
2023-02-17T10:02:59.242Z,2.70
2023-02-17T10:05:33.578Z,2.40
2023-02-17T10:08:10.969Z,2.97
2023-02-17T10:11:08.809Z,2.80
2023-02-17T10:13:39.665Z,2.40
2023-02-17T10:16:11.997Z,2.57
2023-02-17T10:18:52.079Z,2.40
2023-02-17T10:21:26.746Z,3.03
2023-02-17T10:23:53.372Z,2.90
2023-02-17T10:26:39.423Z,2.23
2023-02-17T10:29:31.780Z,2.80
2023-02-17T10:32:14.486Z,2.77
2023-02-17T10:34:51.205Z,3.47
2023-02-17T10:37:40.506Z,3.77
2023-02-17T10:40:20.980Z,2.33
2023-02-17T10:42:51.170Z,4.30
2023-02-17T10:45:49.939Z,3.07
2023-02-17T10:48:22.461Z,2.50
2023-02-17T10:50:50.104Z,2.77
2023-02-17T10:53:21.446Z,2.30
2023-02-17T10:56:09.365Z,2.30
2023-02-17T10:58:58.096Z,2.53
2023-02-17T11:01:25.361Z,2.70
2023-02-17T11:04:13.811Z,2.50
2023-02-17T11:06:52.525Z,2.70
2023-02-17T11:09:28.946Z,2.47
2023-02-17T11:12:00.119Z,2.60
2023-02-17T11:14:30.685Z,2.60
2023-02-17T11:17:33.086Z,2.70
2023-02-17T11:20:06.811Z,2.80
2023-02-17T11:22:40.832Z,3.47
2023-02-17T11:25:22.506Z,3.10
2023-02-17T11:27:53.502Z,3.13
2023-02-17T11:30:20.888Z,3.07
2023-02-17T11:32:48.313Z,3.57
2023-02-17T11:35:46.557Z,3.90
2023-02-17T11:38:20.007Z,2.90
2023-02-17T11:40:56.300Z,3.90
2023-02-17T11:43:23.899Z,2.83
2023-02-17T11:46:01.124Z,2.53
2023-02-17T11:48:40.016Z,3.13
2023-02-17T11:51:32.579Z,3.57
2023-02-17T11:54:25.752Z,3.37
2023-02-17T11:57:27.806Z,3.33
2023-02-17T12:00:05.840Z,3.00
2023-02-17T12:02:41.113Z,3.87
2023-02-17T12:05:16.916Z,3.37
2023-02-17T12:08:15.942Z,3.57
2023-02-17T12:10:50.449Z,3.90
2023-02-17T12:13:29.640Z,3.23
2023-02-17T12:16:20.783Z,3.43
2023-02-17T12:19:03.912Z,3.60
2023-02-17T12:21:53.678Z,3.60
2023-02-17T12:24:26.111Z,3.83
2023-02-17T12:33:14.814Z,3.77
2023-02-17T12:35:57.572Z,3.63
2023-02-17T12:38:32.689Z,3.17
2023-02-17T12:46:41.528Z,3.43
2023-02-17T12:49:20.198Z,3.27
2023-02-17T12:51:51.897Z,3.23
2023-02-17T12:54:32.808Z,3.03
2023-02-17T12:57:15.180Z,3.17
2023-02-17T12:59:48.181Z,4.90
2023-02-17T13:02:23.847Z,3.50
2023-02-17T13:04:55.817Z,3.17
2023-02-17T13:07:26.691Z,4.50
2023-02-17T13:09:56.092Z,3.30
2023-02-17T13:12:22.737Z,3.60
2023-02-17T13:14:50.823Z,3.73
2023-02-17T13:17:36.979Z,3.33
2023-02-17T13:20:26.462Z,3.53
2023-02-17T13:23:12.077Z,2.87
2023-02-17T13:25:38.847Z,2.50
2023-02-17T13:28:33.490Z,2.70
2023-02-17T13:31:14.223Z,3.00
2023-02-17T13:34:04.090Z,2.97
2023-02-17T13:36:37.092Z,2.80
2023-02-17T13:39:03.681Z,2.80
2023-02-17T13:41:44.127Z,2.93
2023-02-17T13:44:26.651Z,3.20
2023-02-17T13:46:56.309Z,3.17
2023-02-17T13:49:27.607Z,2.63
2023-02-17T13:51:55.387Z,2.70
2023-02-17T13:54:23.319Z,2.80
2023-02-17T13:56:53.976Z,2.60
2023-02-17T13:59:26.080Z,2.80
2023-02-17T14:01:54.906Z,1.90
2023-02-17T14:04:31.415Z,2.03
2023-02-17T14:07:00.197Z,2.90
2023-02-17T14:09:28.670Z,2.30
2023-02-17T14:11:56.613Z,2.57
2023-02-17T14:14:33.036Z,2.20
2023-02-17T14:17:01.206Z,2.40
2023-02-17T14:19:29.389Z,2.00
2023-02-17T14:22:04.059Z,2.87
2023-02-17T14:24:30.780Z,2.77
2023-02-17T14:27:04.191Z,2.37
2023-02-17T14:29:42.256Z,2.30
2023-02-17T14:32:33.228Z,2.00
2023-02-17T14:35:26.223Z,3.53
2023-02-17T14:37:53.011Z,3.10
2023-02-17T14:40:24.585Z,3.50
2023-02-17T14:42:52.054Z,3.00
2023-02-17T14:45:19.170Z,3.10
2023-02-17T14:47:46.826Z,3.30
2023-02-17T14:50:16.195Z,3.50
2023-02-17T14:52:46.626Z,2.90
2023-02-17T14:55:28.322Z,3.37
2023-02-17T14:57:55.202Z,3.30
2023-02-17T15:00:22.372Z,3.10
2023-02-17T15:02:49.028Z,3.10
2023-02-17T15:05:15.781Z,3.47
2023-02-17T15:07:42.488Z,3.40
2023-02-17T15:10:29.167Z,2.73
2023-02-17T15:12:57.041Z,3.43
2023-02-17T15:15:23.848Z,3.30
2023-02-17T15:17:50.498Z,3.30
2023-02-17T15:20:17.509Z,3.40
2023-02-17T15:22:44.761Z,4.10
2023-02-17T15:25:22.197Z,3.53
2023-02-17T15:27:51.609Z,4.60
2023-02-17T15:30:21.882Z,3.90
2023-02-17T15:32:48.962Z,4.20
2023-02-17T15:35:24.719Z,5.00
2023-02-17T15:37:52.101Z,3.97
2023-02-17T15:40:27.782Z,5.43
2023-02-17T15:42:57.159Z,5.20
2023-02-17T15:45:24.743Z,4.90
2023-02-17T15:47:55.982Z,4.90
2023-02-17T15:50:23.116Z,5.50
2023-02-17T15:52:51.011Z,6.30
2023-02-17T15:55:19.170Z,6.30
2023-02-17T15:57:48.429Z,6.33
2023-02-17T16:00:25.324Z,8.07
2023-02-17T16:02:53.226Z,8.57
2023-02-17T16:05:23.226Z,7.10
2023-02-17T16:07:49.882Z,8.77
2023-02-17T16:10:19.278Z,10.53
2023-02-17T16:12:48.195Z,9.50
2023-02-17T16:15:23.704Z,8.77
2023-02-17T16:17:51.152Z,7.00
2023-02-17T16:20:22.280Z,7.77
2023-02-17T16:22:49.093Z,6.73
2023-02-17T16:25:17.647Z,5.43
2023-02-17T16:27:46.338Z,4.57
2023-02-17T16:30:24.127Z,3.57
2023-02-17T16:32:53.052Z,3.77
2023-02-17T16:35:23.680Z,3.57
2023-02-17T16:37:54.556Z,2.70
2023-02-17T16:40:24.329Z,3.53
2023-02-17T16:42:51.255Z,3.17
2023-02-17T16:45:21.719Z,2.93
2023-02-17T16:47:53.424Z,2.80
2023-02-17T16:50:26.112Z,3.53
2023-02-17T16:52:55.216Z,2.83
2023-02-17T16:55:24.183Z,3.97
2023-02-17T16:57:50.925Z,4.10
2023-02-17T17:00:21.634Z,3.63
2023-02-17T17:02:49.762Z,4.00
2023-02-17T17:05:18.641Z,3.57
2023-02-17T17:07:45.365Z,3.40
2023-02-17T17:10:17.230Z,4.07
2023-02-17T17:12:45.023Z,4.37
2023-02-17T17:15:12.090Z,3.43
2023-02-17T17:17:45.907Z,2.47
2023-02-17T17:20:21.354Z,2.60
2023-02-17T17:22:49.421Z,2.73
2023-02-17T17:25:16.639Z,2.57
2023-02-17T17:27:44.826Z,2.37
2023-02-17T17:30:21.172Z,2.67
2023-02-17T17:32:47.956Z,3.17
2023-02-17T17:35:15.204Z,3.03
2023-02-17T17:37:41.975Z,3.23
2023-02-17T17:40:16.425Z,3.17
2023-02-17T17:42:43.986Z,3.23
2023-02-17T17:45:12.934Z,2.83
2023-02-17T17:47:40.421Z,2.43
2023-02-17T17:50:13.301Z,2.63
2023-02-17T17:52:40.104Z,4.27
2023-02-17T17:55:06.881Z,4.27
2023-02-17T17:57:33.521Z,3.60
2023-02-17T18:00:00.238Z,5.63
2023-02-17T18:02:27.552Z,11.80
2023-02-17T18:04:54.434Z,65.13
2023-02-17T18:07:21.116Z,51.70
2023-02-17T18:09:47.851Z,18.03
2023-02-17T18:12:17.899Z,10.40
2023-02-17T18:14:47.916Z,7.47
2023-02-17T18:17:15.488Z,8.53
2023-02-17T18:19:49.327Z,8.73
2023-02-17T18:22:16.294Z,7.57
2023-02-17T18:24:43.254Z,5.90
2023-02-17T18:27:10.106Z,8.17
2023-02-17T18:29:36.710Z,6.70
2023-02-17T18:32:03.428Z,5.50
2023-02-17T18:34:30.458Z,8.13
2023-02-17T18:36:57.110Z,12.23
2023-02-17T18:39:23.791Z,11.23
2023-02-17T18:41:50.632Z,7.47
2023-02-17T18:44:17.596Z,11.13
2023-02-17T18:46:44.240Z,7.90
2023-02-17T18:49:10.984Z,10.50
2023-02-17T18:51:37.608Z,9.97
2023-02-17T18:54:04.698Z,6.90
2023-02-17T18:56:33.969Z,8.13
2023-02-17T18:59:00.633Z,6.23
2023-02-17T19:01:29.811Z,6.37
2023-02-17T19:03:56.891Z,5.20
2023-02-17T19:06:28.180Z,5.13
2023-02-17T19:08:54.957Z,7.07
2023-02-17T19:11:25.360Z,7.00
2023-02-17T19:13:52.640Z,6.20
2023-02-17T19:16:25.429Z,6.47
2023-02-17T19:18:52.556Z,7.70
2023-02-17T19:21:19.722Z,11.00
2023-02-17T19:23:46.727Z,7.43
2023-02-17T19:26:14.597Z,7.83
2023-02-17T19:28:41.652Z,9.17
2023-02-17T19:31:14.521Z,8.03
2023-02-17T19:33:41.747Z,6.43
2023-02-17T19:36:10.874Z,7.10
2023-02-17T19:38:37.855Z,7.00
2023-02-17T19:41:07.207Z,6.40
2023-02-17T19:43:33.919Z,12.03
2023-02-17T19:46:00.646Z,5.67
2023-02-17T19:48:27.512Z,10.73
2023-02-17T19:51:03.503Z,15.50
2023-02-17T19:53:31.662Z,13.90
2023-02-17T19:56:15.742Z,8.63
2023-02-17T19:58:44.341Z,7.53
2023-02-17T20:01:14.253Z,6.83
2023-02-17T20:03:42.265Z,4.90
2023-02-17T20:06:30.269Z,4.43
2023-02-17T20:08:59.904Z,2.87
2023-02-17T20:11:27.090Z,5.10
2023-02-17T20:13:53.912Z,6.60
2023-02-17T20:16:21.123Z,6.30
2023-02-17T20:18:49.791Z,7.53
2023-02-17T20:21:19.732Z,10.10
2023-02-17T20:23:46.505Z,8.70
2023-02-17T20:26:19.916Z,6.33
2023-02-17T20:28:47.190Z,6.60
2023-02-17T20:31:14.175Z,6.73
2023-02-17T20:33:41.267Z,9.23
2023-02-17T20:36:09.070Z,7.13
2023-02-17T20:38:37.636Z,8.07
2023-02-17T20:41:05.665Z,12.97
2023-02-17T20:43:33.042Z,7.27
2023-02-17T20:46:00.370Z,4.67
2023-02-17T20:48:27.803Z,5.10
2023-02-17T20:50:55.766Z,6.43
2023-02-17T20:53:22.682Z,7.50
2023-02-17T20:55:49.861Z,10.20
2023-02-17T20:58:16.552Z,9.10
2023-02-17T21:00:43.381Z,9.30
2023-02-17T21:03:10.205Z,10.37
2023-02-17T21:05:37.791Z,10.20
2023-02-17T21:08:05.181Z,6.97
2023-02-17T21:10:32.884Z,7.47
2023-02-17T21:12:59.528Z,7.53
2023-02-17T21:15:27.299Z,5.73
2023-02-17T21:17:54.304Z,5.03
2023-02-17T21:20:21.982Z,5.23
2023-02-17T21:22:49.416Z,4.83
2023-02-17T21:25:16.061Z,4.03
2023-02-17T21:27:42.790Z,4.57
2023-02-17T21:30:10.145Z,5.30
2023-02-17T21:32:37.047Z,4.90
2023-02-17T21:35:03.770Z,4.57
2023-02-17T21:37:30.435Z,4.17
2023-02-17T21:39:57.106Z,4.97
2023-02-17T21:42:44.629Z,5.83
2023-02-17T21:45:12.299Z,6.07
2023-02-17T21:47:38.984Z,5.83
2023-02-17T21:50:06.441Z,5.67
2023-02-17T21:52:33.083Z,6.03
2023-02-17T21:55:01.109Z,6.73
2023-02-17T21:57:27.867Z,7.93
2023-02-17T21:59:54.487Z,6.80
2023-02-17T22:02:21.143Z,6.30
2023-02-17T22:04:47.834Z,6.50
2023-02-17T22:07:14.500Z,6.90
2023-02-17T22:09:41.114Z,6.30
2023-02-17T22:12:07.854Z,7.33
2023-02-17T22:14:34.617Z,6.77
2023-02-17T22:17:02.320Z,7.20
2023-02-17T22:19:31.376Z,7.00
2023-02-17T22:21:58.665Z,7.00
2023-02-17T22:24:27.277Z,6.00
2023-02-17T22:26:55.149Z,7.57
2023-02-17T22:29:21.860Z,8.60
2023-02-17T22:31:50.597Z,6.03
2023-02-17T22:34:17.571Z,6.27
2023-02-17T22:36:44.252Z,7.10
2023-02-17T22:39:10.999Z,7.07
2023-02-17T22:41:39.352Z,6.80
2023-02-17T22:44:06.553Z,7.67
2023-02-17T22:46:34.639Z,7.97
2023-02-17T22:49:01.850Z,6.90
2023-02-17T22:51:46.350Z,6.93
2023-02-17T22:54:13.078Z,6.27
2023-02-17T22:56:39.730Z,6.30
2023-02-17T22:59:06.557Z,6.47
2023-02-17T23:01:36.457Z,7.07
2023-02-17T23:04:04.670Z,7.00
2023-02-17T23:06:35.074Z,6.90
2023-02-17T23:09:02.481Z,5.70
2023-02-17T23:11:53.776Z,6.00
2023-02-17T23:14:30.738Z,6.13
2023-02-17T23:17:09.451Z,5.60
2023-02-17T23:19:37.227Z,5.77
2023-02-17T23:22:07.732Z,6.90
2023-02-17T23:24:34.852Z,7.20
2023-02-17T23:27:03.341Z,5.67
2023-02-17T23:29:31.724Z,6.90
2023-02-17T23:31:59.149Z,5.97
2023-02-17T23:34:26.335Z,5.47
2023-02-17T23:36:52.924Z,6.50
2023-02-17T23:39:19.636Z,8.40
2023-02-17T23:41:46.464Z,7.47
2023-02-17T23:44:14.676Z,6.80
2023-02-17T23:46:43.208Z,7.40
2023-02-17T23:49:13.891Z,6.70
2023-02-17T23:51:40.650Z,5.70
2023-02-17T23:54:07.298Z,6.00
2023-02-17T23:56:35.647Z,6.67
2023-02-17T23:59:02.951Z,6.63
